Time;durP1;ratioP1;P1;durP2;ratioP2;P2;SDS_P1;SDS_P2;PMS_P1;PMS_P2;Temp;Humidity;BMP_temperature;BMP_pressure;BME280_temperature;BME280_humidity;BME280_pressure;Samples;Min_cycle;Max_cycle;Signal;HPM_P1;HPM_P2
2022/01/02 00:01:54;;;;;;;7.60;6.60;;;10.50;6.00;;;;;;6332851;27;20720;-56
2022/01/02 00:05:04;;;;;;;12.87;6.93;;;10.50;5.70;;;;;;6330583;27;20763;-56
2022/01/02 00:08:08;;;;;;;9.20;7.57;;;10.50;6.40;;;;;;6329713;27;20224;-56
2022/01/02 00:11:12;;;;;;;11.50;7.80;;;10.40;6.70;;;;;;6337139;27;20240;-56
2022/01/02 00:14:22;;;;;;;9.23;7.70;;;10.40;7.00;;;;;;6336767;27;20738;-56
2022/01/02 00:17:25;;;;;;;8.80;7.90;;;10.40;7.30;;;;;;6332834;28;20470;-56
2022/01/02 00:20:32;;;;;;;9.53;7.63;;;10.30;7.20;;;;;;6346679;27;20231;-57
2022/01/02 00:23:48;;;;;;;10.70;7.97;;;10.30;7.10;;;;;;6336752;28;20284;-57
2022/01/02 00:26:51;;;;;;;8.93;8.03;;;10.30;7.50;;;;;;6332812;28;20461;-56
2022/01/02 00:29:57;;;;;;;11.37;9.20;;;10.20;8.10;;;;;;6336627;27;20244;-57
2022/01/02 00:33:01;;;;;;;14.07;9.97;;;10.10;8.60;;;;;;6329758;28;20374;-55
2022/01/02 00:36:04;;;;;;;11.30;9.97;;;10.10;8.20;;;;;;6332886;28;20246;-56
2022/01/02 00:39:09;;;;;;;10.43;8.77;;;10.10;9.40;;;;;;6333107;27;20305;-56
2022/01/02 00:42:17;;;;;;;11.77;8.43;;;10.00;9.40;;;;;;6331603;28;20362;-57
2022/01/02 00:45:27;;;;;;;9.07;8.17;;;9.90;10.10;;;;;;6329758;28;20726;-57
2022/01/02 00:48:32;;;;;;;9.37;8.43;;;9.90;11.10;;;;;;6341424;27;20228;-56
2022/01/02 00:51:43;;;;;;;11.00;8.73;;;9.80;11.50;;;;;;6336198;27;20228;-57
2022/01/02 00:54:47;;;;;;;12.03;9.00;;;9.80;12.30;;;;;;6336364;27;20717;-56
2022/01/02 00:57:57;;;;;;;10.40;8.77;;;9.70;12.90;;;;;;6335138;28;20263;-56
2022/01/02 01:01:06;;;;;;;9.20;8.30;;;9.70;13.30;;;;;;6328220;28;20627;-56
2022/01/02 01:04:11;;;;;;;10.83;9.73;;;9.70;12.60;;;;;;6332638;27;20235;-55
2022/01/02 01:07:15;;;;;;;14.63;8.93;;;9.70;12.90;;;;;;6332567;28;20265;-56
2022/01/02 01:10:19;;;;;;;11.00;9.17;;;9.70;13.10;;;;;;6330941;28;20247;-57
2022/01/02 01:13:24;;;;;;;13.87;8.50;;;9.70;13.50;;;;;;6329281;28;20750;-57
2022/01/02 01:16:28;;;;;;;14.77;9.13;;;9.60;13.50;;;;;;6330554;28;20703;-57
2022/01/02 01:19:31;;;;;;;10.27;9.30;;;9.70;13.80;;;;;;6337117;27;20600;-58
2022/01/02 01:22:34;;;;;;;13.67;9.00;;;9.80;12.20;;;;;;6333508;28;20634;-56
2022/01/02 01:25:39;;;;;;;12.30;8.87;;;9.70;13.20;;;;;;6336870;27;20397;-56
2022/01/02 01:28:41;;;;;;;12.27;9.13;;;9.70;12.50;;;;;;6333209;28;20278;-56
2022/01/02 01:31:46;;;;;;;10.50;9.37;;;9.70;13.40;;;;;;6330621;28;20889;-57
2022/01/02 01:34:49;;;;;;;9.83;8.83;;;9.60;14.00;;;;;;6333446;28;20496;-56
2022/01/02 01:37:52;;;;;;;10.63;9.50;;;9.60;14.00;;;;;;6332798;28;20712;-58
2022/01/02 01:40:59;;;;;;;9.57;8.77;;;9.50;14.70;;;;;;6331957;28;20422;-58
2022/01/02 01:44:21;;;;;;;11.00;10.10;;;9.50;13.90;;;;;;6332508;28;20363;-58
2022/01/02 01:47:25;;;;;;;11.17;9.80;;;9.50;14.10;;;;;;6331864;27;20234;-58
2022/01/02 01:50:30;;;;;;;10.10;8.80;;;9.50;14.30;;;;;;6337611;27;20269;-56
2022/01/02 01:53:33;;;;;;;9.90;8.97;;;9.50;14.50;;;;;;6328971;28;20296;-57
2022/01/02 01:56:36;;;;;;;10.43;9.33;;;9.50;14.40;;;;;;6333042;27;20357;-58
2022/01/02 01:59:39;;;;;;;10.97;9.00;;;9.50;14.00;;;;;;6332879;28;20309;-58
2022/01/02 02:02:44;;;;;;;10.70;9.33;;;9.50;14.00;;;;;;6331453;28;20314;-58
2022/01/02 02:05:47;;;;;;;11.20;9.30;;;9.50;14.30;;;;;;6331650;28;20718;-57
2022/01/02 02:08:52;;;;;;;10.63;9.10;;;9.50;14.00;;;;;;6330830;28;20238;-57
2022/01/02 02:11:59;;;;;;;9.83;8.67;;;9.50;14.20;;;;;;6331629;28;20708;-57
2022/01/02 02:15:02;;;;;;;10.87;8.70;;;9.50;14.40;;;;;;6332184;28;20256;-57
2022/01/02 02:18:06;;;;;;;8.97;8.17;;;9.50;14.60;;;;;;6328862;27;20333;-57
2022/01/02 02:21:10;;;;;;;9.57;8.77;;;9.40;15.20;;;;;;6337220;27;20389;-57
2022/01/02 02:24:14;;;;;;;10.03;9.23;;;9.40;14.80;;;;;;6335456;27;20235;-57
2022/01/02 02:27:22;;;;;;;9.53;8.73;;;9.40;14.30;;;;;;6331001;28;20260;-57
2022/01/02 02:30:27;;;;;;;9.57;8.67;;;9.50;13.40;;;;;;6331526;28;20579;-58
2022/01/02 02:33:31;;;;;;;10.97;8.77;;;9.50;13.60;;;;;;6331993;28;20996;-57
2022/01/02 02:36:35;;;;;;;12.60;9.73;;;9.50;13.70;;;;;;6328350;28;20299;-57
2022/01/02 02:39:38;;;;;;;10.17;8.57;;;9.50;14.00;;;;;;6331059;28;20232;-57
2022/01/02 02:42:47;;;;;;;14.37;9.77;;;9.40;14.00;;;;;;6331226;28;20224;-57
2022/01/02 02:49:10;;;;;;;9.93;8.93;;;9.20;15.50;;;;;;6339996;27;20235;-57
2022/01/02 02:52:27;;;;;;;10.03;9.07;;;9.20;15.70;;;;;;6328053;28;20373;-56
2022/01/02 02:55:32;;;;;;;9.47;8.47;;;9.20;15.10;;;;;;6330705;28;20420;-58
2022/01/02 02:58:43;;;;;;;12.73;8.60;;;9.10;15.90;;;;;;6325214;28;20315;-55
2022/01/02 03:01:46;;;;;;;9.07;8.23;;;9.20;15.30;;;;;;6334645;28;20243;-58
2022/01/02 03:04:49;;;;;;;9.03;8.17;;;9.10;15.10;;;;;;6318170;28;20256;-56
2022/01/02 03:07:54;;;;;;;8.97;8.13;;;9.10;14.80;;;;;;6336503;28;20319;-58
2022/01/02 03:10:56;;;;;;;8.43;7.83;;;9.20;15.50;;;;;;6329516;27;20335;-58
2022/01/02 03:13:59;;;;;;;9.13;8.33;;;9.20;14.10;;;;;;6328181;27;20664;-57
2022/01/02 03:17:03;;;;;;;8.80;8.10;;;9.20;14.00;;;;;;6335636;28;20315;-57
2022/01/02 03:20:06;;;;;;;8.83;8.07;;;9.10;15.00;;;;;;6342506;27;20252;-57
2022/01/02 03:23:10;;;;;;;8.20;7.60;;;9.00;15.30;;;;;;6328925;28;20231;-57
2022/01/02 03:26:13;;;;;;;8.23;7.57;;;9.00;15.30;;;;;;6340164;27;20722;-58
2022/01/02 03:29:16;;;;;;;10.73;7.63;;;9.10;15.20;;;;;;6336256;27;20239;-57
2022/01/02 03:32:18;;;;;;;8.37;7.63;;;9.00;15.40;;;;;;6334224;27;20242;-58
2022/01/02 03:35:21;;;;;;;8.73;7.80;;;9.10;14.80;;;;;;6334980;27;20308;-57
2022/01/02 03:38:26;;;;;;;9.97;7.50;;;9.10;14.30;;;;;;6329830;27;20865;-58
2022/01/02 03:41:29;;;;;;;7.90;7.27;;;9.10;13.70;;;;;;6333489;27;20224;-57
2022/01/02 03:44:31;;;;;;;8.00;7.20;;;9.10;14.40;;;;;;6334620;27;20239;-57
2022/01/02 03:47:34;;;;;;;8.27;7.30;;;9.20;15.00;;;;;;6334078;28;20238;-58
2022/01/02 03:50:37;;;;;;;8.00;7.40;;;9.00;15.10;;;;;;6342571;27;20315;-56
2022/01/02 03:53:41;;;;;;;8.40;7.63;;;9.00;15.60;;;;;;6334656;27;20282;-56
2022/01/02 03:56:44;;;;;;;8.93;7.73;;;9.00;16.00;;;;;;6332742;28;20300;-58
2022/01/02 03:59:47;;;;;;;8.70;7.90;;;9.00;15.80;;;;;;6334757;27;20318;-56
2022/01/02 04:02:49;;;;;;;9.33;8.40;;;8.90;16.20;;;;;;6335123;28;20385;-58
2022/01/02 04:05:52;;;;;;;8.50;7.77;;;9.00;15.90;;;;;;6326948;27;20232;-57
2022/01/02 04:08:56;;;;;;;8.07;7.43;;;9.10;15.10;;;;;;6334256;28;20242;-57
2022/01/02 04:11:59;;;;;;;8.23;7.43;;;9.00;15.60;;;;;;6332272;28;20263;-58
2022/01/02 04:15:04;;;;;;;8.00;7.47;;;9.00;15.80;;;;;;6334560;28;20397;-57
2022/01/02 04:18:07;;;;;;;7.93;7.30;;;9.00;15.10;;;;;;6337758;27;20725;-58
2022/01/02 04:21:10;;;;;;;8.80;8.00;;;9.00;15.80;;;;;;6340583;27;20702;-58
2022/01/02 04:24:14;;;;;;;10.10;8.53;;;9.00;15.50;;;;;;6338008;27;20618;-58
2022/01/02 04:27:18;;;;;;;8.40;7.40;;;8.90;16.20;;;;;;6332983;27;20240;-58
2022/01/02 04:30:21;;;;;;;7.93;7.33;;;9.00;15.80;;;;;;6330345;28;20808;-58
2022/01/02 04:33:24;;;;;;;8.03;7.23;;;9.00;15.80;;;;;;6315074;28;20228;-58
2022/01/02 04:36:27;;;;;;;8.03;7.27;;;9.00;15.40;;;;;;6324469;28;20783;-58
2022/01/02 04:39:34;;;;;;;10.63;8.50;;;9.00;15.50;;;;;;6327377;27;20240;-58
2022/01/02 04:42:37;;;;;;;7.80;7.20;;;9.00;15.50;;;;;;6325290;27;20523;-58
2022/01/02 04:45:40;;;;;;;8.23;7.60;;;9.00;15.50;;;;;;6327798;28;20287;-58
2022/01/02 04:48:42;;;;;;;7.80;7.10;;;9.00;15.20;;;;;;6328152;27;20635;-59
2022/01/02 04:51:45;;;;;;;8.40;7.70;;;9.00;15.70;;;;;;6326550;28;20557;-58
2022/01/02 04:54:49;;;;;;;7.63;7.00;;;8.90;15.90;;;;;;6328234;28;20241;-58
2022/01/02 04:57:52;;;;;;;8.37;7.57;;;8.90;16.00;;;;;;6332843;28;20605;-58
2022/01/02 05:00:55;;;;;;;8.67;7.87;;;8.90;16.60;;;;;;6326926;28;20273;-55
2022/01/02 05:03:58;;;;;;;8.20;7.43;;;8.90;17.60;;;;;;6331563;28;20743;-58
2022/01/02 05:07:01;;;;;;;7.70;7.20;;;8.90;17.60;;;;;;6326087;27;20829;-58
2022/01/02 05:10:07;;;;;;;8.50;7.80;;;8.90;17.60;;;;;;6326475;27;20739;-57
2022/01/02 05:13:10;;;;;;;7.70;7.10;;;8.80;17.70;;;;;;6328903;28;20369;-58
2022/01/02 05:16:12;;;;;;;8.40;7.50;;;8.80;18.20;;;;;;6328079;28;20311;-56
2022/01/02 05:19:16;;;;;;;8.77;7.20;;;8.80;18.60;;;;;;6331510;27;20243;-58
2022/01/02 05:22:19;;;;;;;9.53;7.60;;;8.80;19.20;;;;;;6329237;28;20602;-58
2022/01/02 05:25:23;;;;;;;8.00;7.30;;;8.70;19.80;;;;;;6331345;28;20255;-58
2022/01/02 05:28:26;;;;;;;8.77;8.00;;;8.80;19.80;;;;;;6331346;27;20391;-59
2022/01/02 05:31:29;;;;;;;7.73;7.10;;;8.70;20.00;;;;;;6332074;27;20787;-56
2022/01/02 05:34:32;;;;;;;8.47;7.63;;;8.70;21.10;;;;;;6320817;28;20228;-58
2022/01/02 05:37:35;;;;;;;9.33;8.30;;;8.70;21.40;;;;;;6324413;28;20756;-56
2022/01/02 05:40:39;;;;;;;8.07;7.50;;;8.70;21.90;;;;;;6320634;28;20414;-57
2022/01/02 05:43:41;;;;;;;9.97;8.33;;;8.70;22.40;;;;;;6325740;28;20603;-57
2022/01/02 05:46:44;;;;;;;8.57;7.73;;;8.70;22.50;;;;;;6326959;28;20244;-58
2022/01/02 05:49:47;;;;;;;9.57;8.80;;;8.70;22.80;;;;;;6325926;28;20239;-58
2022/01/02 05:52:50;;;;;;;9.53;8.57;;;8.70;22.60;;;;;;6330684;28;20340;-58
2022/01/02 05:55:54;;;;;;;9.87;8.67;;;8.70;22.90;;;;;;6329677;27;20262;-58
2022/01/02 05:58:57;;;;;;;10.23;9.00;;;8.70;22.40;;;;;;6331664;28;20235;-57
2022/01/02 06:02:00;;;;;;;9.40;8.60;;;8.60;23.20;;;;;;6331483;28;20259;-57
2022/01/02 06:05:03;;;;;;;9.30;8.37;;;8.70;23.70;;;;;;6329549;27;20385;-58
2022/01/02 06:08:06;;;;;;;9.87;9.03;;;8.60;23.90;;;;;;6330272;28;20369;-58
2022/01/02 06:11:10;;;;;;;9.83;8.27;;;8.60;24.80;;;;;;6330774;28;20265;-57
2022/01/02 06:14:13;;;;;;;9.80;8.97;;;8.60;24.50;;;;;;6316540;28;20440;-53
2022/01/02 06:17:15;;;;;;;9.17;8.43;;;8.50;25.20;;;;;;6330688;28;20354;-57
2022/01/02 06:20:18;;;;;;;9.60;8.60;;;8.50;26.20;;;;;;6323953;27;20234;-56
2022/01/02 06:23:21;;;;;;;9.33;8.53;;;8.50;26.80;;;;;;6325454;28;20520;-59
2022/01/02 06:26:25;;;;;;;10.13;8.97;;;8.50;28.50;;;;;;6328451;28;20284;-58
2022/01/02 06:29:28;;;;;;;9.67;8.73;;;8.60;28.30;;;;;;6321852;28;20235;-57
2022/01/02 06:32:31;;;;;;;9.93;8.87;;;8.60;27.80;;;;;;6332044;28;20300;-57
2022/01/02 06:35:35;;;;;;;9.27;8.40;;;8.60;27.90;;;;;;6325468;28;21017;-58
2022/01/02 06:38:37;;;;;;;8.57;7.47;;;8.70;27.10;;;;;;6331181;28;20660;-58
2022/01/02 06:41:42;;;;;;;12.03;8.10;;;8.70;27.40;;;;;;6334530;27;20384;-57
2022/01/02 06:44:44;;;;;;;8.27;7.47;;;8.70;28.00;;;;;;6336322;28;20239;-58
2022/01/02 06:47:47;;;;;;;8.90;8.20;;;8.80;27.70;;;;;;6335112;27;20392;-59
2022/01/02 06:50:50;;;;;;;10.90;8.17;;;8.80;28.00;;;;;;6336450;27;20233;-58
2022/01/02 06:53:52;;;;;;;8.03;7.43;;;8.70;28.10;;;;;;6336721;27;20250;-57
2022/01/02 06:56:56;;;;;;;9.90;8.10;;;8.70;28.70;;;;;;6336022;27;20724;-59
2022/01/02 06:59:59;;;;;;;10.03;8.23;;;8.70;29.10;;;;;;6331412;28;20242;-58
2022/01/02 07:03:02;;;;;;;8.17;7.57;;;8.80;29.20;;;;;;6333773;27;20697;-58
2022/01/02 07:06:05;;;;;;;8.93;7.77;;;8.90;29.10;;;;;;6328371;28;20513;-58
2022/01/02 07:09:07;;;;;;;8.17;7.57;;;8.90;28.50;;;;;;6330383;28;20291;-58
2022/01/02 07:12:11;;;;;;;9.53;7.57;;;8.90;28.80;;;;;;6327721;27;20632;-58
2022/01/02 07:15:14;;;;;;;8.33;7.57;;;9.00;28.10;;;;;;6326836;27;20310;-58
2022/01/02 07:18:17;;;;;;;7.93;7.33;;;8.90;28.00;;;;;;6330490;28;20307;-58
2022/01/02 07:21:20;;;;;;;8.27;7.57;;;9.00;28.10;;;;;;6328827;28;20238;-58
2022/01/02 07:24:23;;;;;;;7.70;7.20;;;9.10;28.50;;;;;;6335124;27;20400;-58
2022/01/02 07:27:26;;;;;;;7.93;7.23;;;9.00;27.90;;;;;;6329437;27;20280;-56
2022/01/02 07:30:29;;;;;;;8.07;7.33;;;9.00;28.60;;;;;;6334277;28;20232;-57
2022/01/02 07:33:32;;;;;;;7.97;7.23;;;9.10;28.30;;;;;;6324772;28;20820;-58
2022/01/02 07:36:35;;;;;;;7.67;7.07;;;9.10;28.20;;;;;;6329164;27;20299;-58
2022/01/02 07:39:40;;;;;;;8.00;7.23;;;9.10;28.00;;;;;;6324583;27;20444;-58
2022/01/02 07:42:44;;;;;;;7.97;7.33;;;9.10;28.60;;;;;;6331790;27;20244;-58
2022/01/02 07:45:47;;;;;;;8.07;7.43;;;9.20;28.10;;;;;;6328743;27;20228;-55
2022/01/02 07:48:51;;;;;;;7.47;6.97;;;9.20;28.30;;;;;;6331438;27;20255;-56
2022/01/02 07:51:54;;;;;;;8.13;7.43;;;9.20;28.00;;;;;;6332525;28;20239;-58
2022/01/02 07:54:57;;;;;;;8.47;7.57;;;9.20;28.10;;;;;;6340420;27;20327;-58
2022/01/02 07:58:01;;;;;;;7.27;6.67;;;9.40;27.60;;;;;;6327352;27;20310;-58
2022/01/02 08:01:04;;;;;;;7.53;6.83;;;9.40;27.30;;;;;;6332485;27;20422;-58
2022/01/02 08:04:07;;;;;;;7.70;6.87;;;9.40;27.10;;;;;;6331962;27;20224;-57
2022/01/02 08:07:09;;;;;;;7.83;7.23;;;9.50;26.60;;;;;;6326534;27;20294;-56
2022/01/02 08:10:12;;;;;;;6.63;6.30;;;9.50;25.90;;;;;;6328207;27;20311;-57
2022/01/02 08:13:16;;;;;;;7.07;6.57;;;9.50;26.00;;;;;;6333863;27;20254;-57
2022/01/02 08:16:19;;;;;;;7.07;6.67;;;9.50;26.50;;;;;;6335601;27;20758;-57
2022/01/02 08:19:22;;;;;;;6.73;6.33;;;9.60;26.50;;;;;;6331039;28;20234;-57
2022/01/02 08:22:24;;;;;;;7.13;6.63;;;9.70;25.20;;;;;;6334458;28;20380;-57
2022/01/02 08:25:27;;;;;;;7.27;6.60;;;9.60;25.20;;;;;;6332563;27;20345;-57
2022/01/02 08:28:31;;;;;;;8.97;6.97;;;9.70;26.00;;;;;;6331428;27;20231;-58
2022/01/02 08:31:35;;;;;;;7.10;6.40;;;9.80;23.40;;;;;;6334650;27;20372;-58
2022/01/02 08:34:38;;;;;;;6.90;6.27;;;9.90;22.20;;;;;;6327715;27;20241;-58
2022/01/02 08:37:41;;;;;;;7.77;7.07;;;10.00;20.70;;;;;;6332562;28;20251;-58
2022/01/02 08:40:44;;;;;;;7.67;6.97;;;10.00;20.70;;;;;;6332198;27;20271;-59
2022/01/02 08:43:48;;;;;;;6.73;6.20;;;10.00;20.40;;;;;;6329608;27;20467;-59
2022/01/02 08:46:51;;;;;;;7.43;6.73;;;10.00;20.20;;;;;;6329344;27;20377;-58
2022/01/02 08:49:54;;;;;;;9.67;6.17;;;10.10;20.60;;;;;;6329078;28;20243;-58
2022/01/02 08:52:57;;;;;;;7.73;6.40;;;10.10;20.30;;;;;;6333321;27;20240;-58
2022/01/02 08:56:00;;;;;;;7.57;6.90;;;10.10;21.00;;;;;;6336464;27;20708;-59
2022/01/02 08:59:04;;;;;;;6.30;5.73;;;10.10;21.00;;;;;;6327096;28;22442;-58
2022/01/02 09:02:06;;;;;;;6.63;6.07;;;10.20;20.70;;;;;;6329720;28;20704;-58
2022/01/02 09:05:09;;;;;;;6.57;5.80;;;10.20;20.40;;;;;;6328335;28;20693;-57
2022/01/02 09:08:12;;;;;;;6.87;6.27;;;10.30;19.60;;;;;;6332623;27;20724;-59
2022/01/02 09:11:14;;;;;;;6.53;6.10;;;10.30;20.70;;;;;;6322384;28;20244;-58
2022/01/02 09:14:19;;;;;;;6.37;5.97;;;10.30;20.80;;;;;;6326101;27;20258;-58
2022/01/02 09:17:21;;;;;;;6.47;5.93;;;10.40;20.90;;;;;;6327180;28;20708;-57
2022/01/02 09:20:24;;;;;;;7.00;6.53;;;10.50;20.10;;;;;;6333792;28;20361;-58
2022/01/02 09:23:27;;;;;;;5.73;5.33;;;10.50;20.10;;;;;;6332581;28;20398;-58
2022/01/02 09:26:29;;;;;;;6.20;5.67;;;10.50;20.00;;;;;;6333550;28;20289;-57
2022/01/02 09:29:33;;;;;;;5.60;5.10;;;10.60;19.40;;;;;;6324054;28;20610;-58
2022/01/02 09:32:36;;;;;;;5.23;4.93;;;10.70;17.40;;;;;;6331026;28;20240;-59
2022/01/02 09:35:41;;;;;;;6.27;5.33;;;10.80;17.00;;;;;;6328003;27;20758;-57
2022/01/02 09:38:44;;;;;;;5.67;5.27;;;10.80;16.10;;;;;;6327397;28;20265;-58
2022/01/02 09:41:46;;;;;;;5.27;4.77;;;10.90;15.30;;;;;;6326329;27;20724;-57
2022/01/02 09:44:50;;;;;;;8.47;5.27;;;10.90;15.20;;;;;;6332441;27;20239;-57
2022/01/02 09:47:54;;;;;;;5.00;4.70;;;10.90;15.40;;;;;;6327347;27;20360;-57
2022/01/02 09:50:57;;;;;;;5.67;5.27;;;11.00;16.10;;;;;;6327085;28;20317;-60
2022/01/02 09:54:00;;;;;;;7.13;5.23;;;11.00;15.70;;;;;;6327850;27;20239;-57
2022/01/02 09:57:03;;;;;;;5.90;5.40;;;11.00;16.60;;;;;;6331312;28;20265;-58
2022/01/02 10:00:09;;;;;;;9.10;5.40;;;11.10;16.10;;;;;;6330554;28;20231;-57
2022/01/02 10:03:12;;;;;;;6.67;5.30;;;11.20;15.90;;;;;;6328809;28;20246;-59
2022/01/02 10:06:15;;;;;;;5.87;5.57;;;11.10;17.40;;;;;;6326312;28;20385;-57
2022/01/02 10:09:30;;;;;;;5.67;5.20;;;11.10;17.90;;;;;;6332745;27;20537;-58
2022/01/02 10:12:34;;;;;;;6.83;5.17;;;11.10;18.30;;;;;;6330460;28;20238;-56
2022/01/02 10:15:38;;;;;;;9.07;5.70;;;11.10;18.40;;;;;;6329324;28;20469;-57
2022/01/02 10:18:41;;;;;;;6.93;5.83;;;11.10;18.30;;;;;;6326792;28;20308;-58
2022/01/02 10:21:43;;;;;;;5.47;4.97;;;11.10;18.30;;;;;;6324971;28;20378;-58
2022/01/02 10:24:47;;;;;;;6.00;5.40;;;11.10;18.30;;;;;;6331410;27;20384;-58
2022/01/02 10:27:50;;;;;;;6.77;5.27;;;11.10;18.90;;;;;;6332580;28;20259;-58
2022/01/02 10:30:57;;;;;;;6.17;5.57;;;11.10;18.30;;;;;;6333187;28;20600;-58
2022/01/02 10:34:00;;;;;;;6.47;5.87;;;11.10;19.70;;;;;;6326634;28;20244;-58
2022/01/02 10:37:03;;;;;;;6.13;5.70;;;11.10;19.70;;;;;;6326569;28;20298;-58
2022/01/02 10:40:23;;;;;;;6.10;5.50;;;11.20;19.40;;;;;;6324142;28;20371;-58
2022/01/02 10:43:28;;;;;;;6.17;5.57;;;11.30;20.10;;;;;;6328743;28;20711;-57
2022/01/02 10:46:32;;;;;;;6.43;5.97;;;11.30;18.50;;;;;;6330130;28;20323;-58
2022/01/02 10:50:05;;;;;;;8.97;5.77;;;11.40;18.40;;;;;;6330811;28;20239;-58
2022/01/02 10:53:17;;;;;;;7.87;5.33;;;11.30;18.50;;;;;;6288928;28;20311;-59
2022/01/02 10:56:22;;;;;;;7.97;5.60;;;11.30;18.50;;;;;;6332887;27;20255;-58
2022/01/02 10:59:30;;;;;;;8.50;6.40;;;11.30;19.20;;;;;;6321104;28;20224;-51
2022/01/02 11:02:35;;;;;;;7.13;6.37;;;11.30;19.90;;;;;;6332035;28;20243;-57
2022/01/02 11:05:39;;;;;;;7.70;6.33;;;11.30;20.00;;;;;;6327546;28;20228;-57
2022/01/02 11:08:47;;;;;;;7.53;6.10;;;11.30;20.90;;;;;;6324240;28;20236;-58
2022/01/02 11:11:51;;;;;;;8.67;6.70;;;11.30;20.90;;;;;;6321559;28;20310;-56
2022/01/02 11:14:54;;;;;;;7.50;6.77;;;11.20;22.20;;;;;;6326684;27;20386;-58
2022/01/02 11:17:59;;;;;;;8.70;7.27;;;11.10;23.90;;;;;;6326116;28;20366;-56
2022/01/02 11:21:03;;;;;;;7.97;7.30;;;11.20;23.10;;;;;;6331727;28;20236;-58
2022/01/02 11:24:15;;;;;;;7.87;6.83;;;11.10;23.30;;;;;;6336767;27;20280;-58
2022/01/02 11:27:24;;;;;;;9.90;7.93;;;11.10;24.10;;;;;;6335905;28;20260;-57
2022/01/02 11:30:38;;;;;;;9.07;8.10;;;11.00;25.10;;;;;;6333879;27;20245;-59
2022/01/02 11:33:43;;;;;;;10.33;8.00;;;11.00;26.10;;;;;;6335239;28;20427;-56
2022/01/02 11:36:45;;;;;;;10.07;8.00;;;10.90;26.70;;;;;;6332633;28;20259;-57
2022/01/02 11:39:57;;;;;;;10.17;8.40;;;10.90;28.20;;;;;;6334208;27;21348;-56
2022/01/02 11:42:59;;;;;;;11.40;8.73;;;10.90;29.50;;;;;;6328302;28;20308;-60
2022/01/02 11:46:15;;;;;;;14.27;9.00;;;10.90;29.40;;;;;;6332750;27;20227;-58
2022/01/02 11:49:25;;;;;;;8.80;7.93;;;10.90;29.40;;;;;;6332633;27;20641;-58
2022/01/02 11:52:31;;;;;;;9.43;7.60;;;10.90;29.90;;;;;;6332650;27;20293;-57
2022/01/02 11:55:34;;;;;;;9.23;8.33;;;10.90;29.90;;;;;;6335760;27;20266;-57
2022/01/02 11:58:53;;;;;;;8.27;7.47;;;10.90;30.60;;;;;;6332000;27;20308;-57
2022/01/02 12:01:58;;;;;;;10.27;8.70;;;10.90;33.00;;;;;;6329564;27;20252;-57
2022/01/02 12:05:13;;;;;;;14.60;9.03;;;10.90;32.40;;;;;;6336233;28;20254;-57
2022/01/02 12:08:34;;;;;;;10.90;9.13;;;10.90;33.20;;;;;;6329715;28;20716;-56
2022/01/02 12:11:45;;;;;;;8.63;7.87;;;10.80;32.90;;;;;;6328579;27;20252;-57
2022/01/02 12:14:55;;;;;;;9.50;7.13;;;10.90;32.50;;;;;;6325575;28;20236;-56
2022/01/02 12:18:07;;;;;;;10.00;6.43;;;10.90;32.80;;;;;;6328123;28;20347;-57
2022/01/02 12:21:12;;;;;;;6.73;6.13;;;10.90;33.30;;;;;;6329794;28;20243;-57
2022/01/02 12:24:29;;;;;;;7.43;6.77;;;10.80;34.50;;;;;;6330333;28;20254;-58
2022/01/02 12:27:32;;;;;;;11.20;7.10;;;10.90;34.70;;;;;;6326215;28;20232;-55
2022/01/02 12:30:40;;;;;;;7.57;6.80;;;10.90;35.50;;;;;;6341559;27;20567;-58
2022/01/02 12:33:44;;;;;;;9.63;7.17;;;10.90;35.30;;;;;;6327322;27;20228;-57
2022/01/02 12:36:50;;;;;;;7.77;6.73;;;10.80;36.00;;;;;;6335863;27;20236;-58
2022/01/02 12:39:53;;;;;;;9.20;7.43;;;10.80;37.20;;;;;;6327532;27;20283;-57
2022/01/02 12:42:56;;;;;;;7.23;6.63;;;10.70;38.50;;;;;;6334394;27;20482;-56
2022/01/02 12:45:59;;;;;;;10.03;7.13;;;10.80;37.30;;;;;;6331195;27;20615;-56
2022/01/02 12:49:02;;;;;;;7.20;6.63;;;10.80;37.40;;;;;;6332353;27;20402;-57
2022/01/02 12:52:10;;;;;;;7.63;6.83;;;10.70;37.80;;;;;;6330699;28;20274;-56
2022/01/02 12:55:13;;;;;;;9.73;7.50;;;10.80;38.50;;;;;;6322188;28;20240;-57
2022/01/02 12:58:15;;;;;;;8.57;6.87;;;10.70;39.30;;;;;;6331924;28;20231;-56
2022/01/02 13:01:19;;;;;;;7.67;6.83;;;10.70;40.00;;;;;;6332795;28;20304;-56
2022/01/02 13:04:24;;;;;;;9.77;7.17;;;10.70;40.80;;;;;;6333671;28;20807;-56
2022/01/02 13:07:31;;;;;;;7.93;7.03;;;10.70;40.60;;;;;;6324181;28;20239;-56
2022/01/02 13:10:34;;;;;;;10.17;7.23;;;10.60;41.40;;;;;;6332286;28;20604;-56
2022/01/02 13:13:37;;;;;;;8.17;6.77;;;10.60;42.20;;;;;;6333229;27;20300;-58
2022/01/02 13:16:40;;;;;;;11.67;7.47;;;10.60;42.50;;;;;;6326216;27;20392;-57
2022/01/02 13:19:49;;;;;;;7.63;7.03;;;10.60;43.40;;;;;;6332555;28;20330;-56
2022/01/02 13:22:55;;;;;;;9.73;7.30;;;10.60;43.90;;;;;;6330373;27;20783;-58
2022/01/02 13:26:17;;;;;;;10.80;7.70;;;10.60;42.30;;;;;;6331126;27;20235;-56
2022/01/02 13:29:22;;;;;;;11.47;8.67;;;10.60;41.50;;;;;;6332865;27;20318;-56
2022/01/02 13:32:25;;;;;;;12.70;9.07;;;10.60;42.50;;;;;;6320554;28;20862;-56
2022/01/02 13:35:30;;;;;;;8.60;7.77;;;10.50;42.80;;;;;;6326378;27;20381;-56
2022/01/02 13:38:49;;;;;;;11.70;8.27;;;10.60;43.00;;;;;;6331885;28;20236;-56
2022/01/02 13:41:52;;;;;;;8.90;8.07;;;10.60;43.10;;;;;;6326660;27;20386;-58
2022/01/02 13:44:54;;;;;;;8.53;7.50;;;10.60;43.30;;;;;;6319415;28;20376;-56
2022/01/02 13:48:06;;;;;;;9.57;8.50;;;10.50;43.90;;;;;;6313918;28;20235;-56
2022/01/02 13:51:14;;;;;;;7.90;7.20;;;10.60;43.10;;;;;;6331213;28;20307;-56
2022/01/02 13:54:18;;;;;;;8.13;7.20;;;10.50;43.20;;;;;;6331418;28;20228;-56
2022/01/02 13:57:30;;;;;;;8.30;7.57;;;10.50;42.70;;;;;;6327533;28;20236;-56
2022/01/02 14:00:33;;;;;;;8.30;7.53;;;10.40;42.60;;;;;;6331407;28;20315;-57
2022/01/02 14:03:38;;;;;;;7.70;7.00;;;10.40;42.80;;;;;;6323797;28;20228;-57
2022/01/02 14:06:41;;;;;;;8.63;7.77;;;10.40;42.60;;;;;;6324689;28;20319;-55
2022/01/02 14:09:52;;;;;;;9.33;8.43;;;10.40;41.40;;;;;;6330227;28;20879;-56
2022/01/02 14:12:58;;;;;;;9.87;7.67;;;10.40;41.10;;;;;;6334227;27;20257;-57
2022/01/02 14:16:04;;;;;;;8.60;7.70;;;10.40;41.10;;;;;;6329713;28;20596;-58
2022/01/02 14:19:08;;;;;;;8.83;7.60;;;10.40;40.10;;;;;;6332697;28;20236;-58
2022/01/02 14:22:13;;;;;;;6.93;6.43;;;10.40;40.20;;;;;;6325739;28;20235;-57
2022/01/02 14:25:18;;;;;;;8.97;7.27;;;10.50;37.70;;;;;;6330305;28;20900;-56
2022/01/02 14:28:21;;;;;;;7.20;6.17;;;10.50;36.10;;;;;;6326433;28;20303;-57
2022/01/02 14:31:26;;;;;;;7.37;6.47;;;10.60;34.40;;;;;;6324169;28;20604;-57
2022/01/02 14:34:29;;;;;;;8.27;6.93;;;10.60;34.10;;;;;;6325372;28;20236;-52
2022/01/02 14:37:33;;;;;;;7.03;6.40;;;10.50;36.10;;;;;;6330773;28;20248;-56
2022/01/02 14:40:37;;;;;;;7.50;6.70;;;10.50;37.30;;;;;;6325416;28;20323;-56
2022/01/02 14:43:40;;;;;;;7.67;7.07;;;10.50;38.20;;;;;;6329814;28;20255;-56
2022/01/02 14:46:45;;;;;;;9.17;7.37;;;10.50;37.90;;;;;;6326480;28;20329;-56
2022/01/02 14:49:48;;;;;;;9.80;8.33;;;10.50;38.30;;;;;;6331019;28;20235;-56
2022/01/02 14:52:51;;;;;;;8.53;7.43;;;10.40;39.30;;;;;;6325298;28;20267;-56
2022/01/02 14:55:55;;;;;;;7.17;6.57;;;10.40;40.40;;;;;;6327518;27;20250;-57
2022/01/02 14:58:58;;;;;;;7.57;6.77;;;10.40;40.10;;;;;;6339302;27;20400;-57
2022/01/02 15:02:01;;;;;;;7.23;6.73;;;10.40;39.60;;;;;;6336184;28;20563;-56
2022/01/02 15:05:04;;;;;;;7.40;6.73;;;10.40;39.00;;;;;;6330231;27;20370;-56
2022/01/02 15:08:07;;;;;;;7.00;6.50;;;10.50;37.80;;;;;;6332818;27;20232;-57
2022/01/02 15:11:11;;;;;;;12.17;5.63;;;10.50;37.00;;;;;;6336213;28;20232;-57
2022/01/02 15:14:14;;;;;;;8.70;6.17;;;10.60;35.90;;;;;;6326015;27;20310;-56
2022/01/02 15:17:17;;;;;;;6.83;6.37;;;10.60;34.40;;;;;;6334021;27;20224;-56
2022/01/02 15:20:20;;;;;;;6.90;6.20;;;10.60;34.40;;;;;;6335654;28;20224;-56
2022/01/02 15:23:22;;;;;;;11.00;6.97;;;10.70;32.10;;;;;;6330319;28;20386;-57
2022/01/02 15:26:26;;;;;;;8.40;6.33;;;10.70;31.50;;;;;;6331182;28;20709;-57
2022/01/02 15:29:29;;;;;;;7.20;6.50;;;10.70;30.00;;;;;;6333110;28;20385;-56
2022/01/02 15:32:34;;;;;;;7.87;6.90;;;10.70;30.60;;;;;;6331316;27;20711;-56
2022/01/02 15:35:36;;;;;;;8.17;7.07;;;10.70;30.50;;;;;;6327203;28;20240;-56
2022/01/02 15:38:39;;;;;;;8.10;7.30;;;10.70;30.20;;;;;;6330796;28;20285;-57
2022/01/02 15:41:44;;;;;;;8.23;6.70;;;10.70;29.80;;;;;;6324465;27;20236;-56
2022/01/02 15:44:47;;;;;;;7.40;6.70;;;10.60;31.70;;;;;;6324405;27;20486;-53
2022/01/02 15:47:51;;;;;;;9.30;7.40;;;10.60;29.70;;;;;;6327621;28;20529;-57
2022/01/02 15:50:53;;;;;;;7.63;6.90;;;10.70;30.10;;;;;;6335964;27;20256;-55
2022/01/02 15:53:56;;;;;;;10.10;7.13;;;10.60;30.20;;;;;;6334545;27;20738;-57
2022/01/02 15:57:00;;;;;;;7.50;6.90;;;10.60;29.70;;;;;;6331311;27;20768;-57
2022/01/02 16:00:05;;;;;;;7.93;7.13;;;10.70;27.60;;;;;;6332318;28;20236;-55
2022/01/02 16:03:08;;;;;;;7.63;6.93;;;10.70;25.90;;;;;;6335264;27;20228;-55
2022/01/02 16:06:15;;;;;;;6.77;6.13;;;10.80;22.50;;;;;;6333381;27;20357;-55
2022/01/02 16:09:18;;;;;;;6.83;6.23;;;10.80;23.00;;;;;;6328826;27;20315;-56